createdAt,value
2022-08-10T00:00:01.819Z,18.20
2022-08-10T00:02:28.486Z,18.30
2022-08-10T00:04:55.129Z,18.30
2022-08-10T00:07:22.948Z,18.30
2022-08-10T00:09:50.704Z,18.30
2022-08-10T00:12:18.933Z,18.30
2022-08-10T00:14:45.771Z,18.30
2022-08-10T00:17:12.638Z,18.30
2022-08-10T00:20:02.953Z,18.20
2022-08-10T00:22:31.164Z,18.20
2022-08-10T00:24:58.255Z,18.20
2022-08-10T00:27:51.914Z,18.20
2022-08-10T00:30:16.388Z,18.10
2022-08-10T00:32:44.557Z,18.10
2022-08-10T00:35:15.188Z,18.00
2022-08-10T00:37:41.956Z,18.00
2022-08-10T00:40:35.425Z,18.10
2022-08-10T00:43:08.087Z,18.00
2022-08-10T00:45:35.650Z,18.10
2022-08-10T00:48:03.559Z,18.00
2022-08-10T00:50:32.562Z,18.00
2022-08-10T00:53:01.494Z,18.00
2022-08-10T00:55:30.786Z,18.10
2022-08-10T00:57:58.048Z,18.00
2022-08-10T01:00:24.946Z,18.00
2022-08-10T01:02:52.446Z,18.00
2022-08-10T01:05:22.621Z,17.90
2022-08-10T01:08:09.741Z,17.90
2022-08-10T01:11:07.664Z,17.90
2022-08-10T01:14:03.725Z,17.90
2022-08-10T01:16:38.552Z,18.00
2022-08-10T01:19:30.110Z,18.00
2022-08-10T01:22:12.030Z,18.00
2022-08-10T01:24:44.556Z,18.00
2022-08-10T01:27:14.192Z,17.90
2022-08-10T01:30:03.708Z,17.90
2022-08-10T01:41:45.941Z,17.80
2022-08-10T01:44:24.723Z,17.80
2022-08-10T01:47:22.251Z,17.90
2022-08-10T01:50:00.082Z,17.80
2022-08-10T01:52:28.599Z,17.70
2022-08-10T01:54:57.682Z,17.60
2022-08-10T01:57:31.551Z,17.60
2022-08-10T02:00:02.779Z,17.50
2022-08-10T02:02:34.418Z,17.50
2022-08-10T02:05:04.639Z,17.40
2022-08-10T02:07:44.256Z,17.40
2022-08-10T02:10:15.021Z,17.40
2022-08-10T02:12:43.933Z,17.40
2022-08-10T02:15:15.893Z,17.30
2022-08-10T02:17:57.089Z,17.30
2022-08-10T02:20:31.722Z,17.20
2022-08-10T02:23:04.579Z,17.20
2022-08-10T02:25:42.122Z,17.20
2022-08-10T02:28:29.268Z,17.20
2022-08-10T02:31:11.550Z,17.10
2022-08-10T02:33:56.411Z,17.10
2022-08-10T02:36:27.300Z,17.10
2022-08-10T02:39:01.712Z,17.00
2022-08-10T02:45:13.340Z,17.10
2022-08-10T02:45:25.953Z,17.10
2022-08-10T02:47:56.483Z,17.10
2022-08-10T02:50:38.059Z,17.00
2022-08-10T02:53:54.304Z,17.00
2022-08-10T02:56:36.207Z,17.00
2022-08-10T03:02:46.214Z,16.90
2022-08-10T03:05:18.638Z,16.90
2022-08-10T03:08:14.009Z,16.90
2022-08-10T03:10:43.325Z,17.00
2022-08-10T03:13:11.675Z,16.90
2022-08-10T03:15:44.349Z,16.90
2022-08-10T03:18:12.216Z,16.80
2022-08-10T03:20:41.405Z,16.80
2022-08-10T03:23:15.666Z,16.80
2022-08-10T03:25:54.393Z,16.80
2022-08-10T03:28:27.149Z,16.70
2022-08-10T03:30:54.647Z,16.70
2022-08-10T03:33:25.996Z,16.70
2022-08-10T03:36:43.727Z,16.60
2022-08-10T03:38:47.856Z,16.60
2022-08-10T03:41:16.929Z,16.60
2022-08-10T03:43:51.509Z,16.50
2022-08-10T03:46:22.872Z,16.50
2022-08-10T03:48:52.269Z,16.50
2022-08-10T03:51:23.532Z,16.60
2022-08-10T03:54:06.155Z,16.60
2022-08-10T03:56:35.871Z,16.60
2022-08-10T03:59:08.431Z,16.50
2022-08-10T04:02:45.056Z,16.50
2022-08-10T04:04:26.563Z,16.50
2022-08-10T04:06:58.664Z,16.50
2022-08-10T04:09:53.605Z,16.50
2022-08-10T04:12:22.284Z,16.50
2022-08-10T04:20:56.377Z,16.50
2022-08-10T04:23:26.478Z,16.40
2022-08-10T04:25:55.012Z,16.40
2022-08-10T04:28:25.467Z,16.50
2022-08-10T04:30:54.115Z,16.50
2022-08-10T04:33:22.732Z,16.50
2022-08-10T04:35:52.446Z,16.40
2022-08-10T04:38:24.526Z,16.50
2022-08-10T04:40:57.487Z,16.50
2022-08-10T04:43:28.022Z,16.50
2022-08-10T04:45:59.536Z,16.50
2022-08-10T04:48:42.658Z,16.50
2022-08-10T04:51:18.047Z,16.50
2022-08-10T04:54:04.778Z,16.50
2022-08-10T04:56:36.559Z,16.60
2022-08-10T04:59:07.364Z,16.60
2022-08-10T05:02:30.575Z,16.60
2022-08-10T05:04:54.196Z,16.60
2022-08-10T05:07:21.091Z,16.60
2022-08-10T05:10:01.154Z,16.60
2022-08-10T05:12:36.578Z,16.60
2022-08-10T05:15:09.278Z,16.70
2022-08-10T05:17:37.093Z,16.70
2022-08-10T05:20:08.280Z,16.70
2022-08-10T05:22:37.840Z,16.80
2022-08-10T05:25:06.899Z,16.80
2022-08-10T05:27:34.208Z,16.90
2022-08-10T05:30:04.239Z,16.90
2022-08-10T05:32:56.599Z,17.00
2022-08-10T05:35:56.509Z,17.00
2022-08-10T05:38:22.707Z,17.10
2022-08-10T05:40:49.768Z,17.10
2022-08-10T05:43:18.274Z,17.20
2022-08-10T05:46:20.000Z,17.30
2022-08-10T05:48:55.139Z,17.40
2022-08-10T05:51:24.591Z,17.50
2022-08-10T05:54:02.863Z,17.60
2022-08-10T05:56:57.034Z,17.70
2022-08-10T06:00:35.615Z,17.80
2022-08-10T06:02:35.453Z,17.90
2022-08-10T06:05:07.872Z,18.00
2022-08-10T06:07:38.519Z,18.10
2022-08-10T06:10:10.463Z,18.20
2022-08-10T06:13:23.712Z,18.30
2022-08-10T06:15:59.751Z,18.40
2022-08-10T06:18:26.548Z,18.50
2022-08-10T06:20:56.655Z,18.70
2022-08-10T06:23:25.474Z,18.80
2022-08-10T06:26:10.584Z,18.90
2022-08-10T06:29:19.371Z,19.00
2022-08-10T06:31:50.457Z,19.10
2022-08-10T06:40:31.987Z,19.40
2022-08-10T06:43:00.636Z,19.50
2022-08-10T06:45:35.540Z,19.60
2022-08-10T06:48:09.423Z,19.70
2022-08-10T06:50:56.405Z,19.80
2022-08-10T06:53:54.327Z,19.90
2022-08-10T06:56:36.687Z,20.00
2022-08-10T06:59:21.284Z,20.20
2022-08-10T07:02:14.857Z,20.30
2022-08-10T07:04:58.849Z,20.50
2022-08-10T07:07:31.439Z,20.60
2022-08-10T07:10:00.962Z,20.80
2022-08-10T07:12:30.003Z,21.00
2022-08-10T07:14:58.685Z,21.10
2022-08-10T07:17:26.799Z,21.20
2022-08-10T07:19:59.051Z,21.30
2022-08-10T07:23:02.569Z,21.50
2022-08-10T07:25:26.473Z,21.60
2022-08-10T07:28:00.511Z,21.80
2022-08-10T07:30:39.015Z,22.00
2022-08-10T07:33:06.804Z,22.20
2022-08-10T07:35:43.209Z,22.30
2022-08-10T07:38:16.501Z,22.50
2022-08-10T07:40:47.959Z,22.60
2022-08-10T07:43:20.027Z,22.80
2022-08-10T07:45:56.236Z,22.90
2022-08-10T07:48:34.396Z,23.00
2022-08-10T07:51:02.176Z,23.20
2022-08-10T07:53:39.208Z,23.40
2022-08-10T07:56:25.986Z,23.60
2022-08-10T07:59:08.079Z,23.70
2022-08-10T08:01:40.282Z,23.90
2022-08-10T08:04:12.144Z,24.10
2022-08-10T08:06:46.213Z,24.20
2022-08-10T08:09:13.050Z,24.40
2022-08-10T08:11:43.601Z,24.60
2022-08-10T08:14:16.562Z,24.70
2022-08-10T08:16:48.260Z,24.80
2022-08-10T08:19:37.974Z,25.00
2022-08-10T08:24:10.315Z,25.10
2022-08-10T08:24:54.949Z,25.30
2022-08-10T08:27:23.859Z,25.40
2022-08-10T08:29:51.956Z,25.40
2022-08-10T08:32:24.547Z,25.50
2022-08-10T08:35:12.417Z,25.70
2022-08-10T08:38:30.417Z,25.90
2022-08-10T08:40:34.449Z,26.00
2022-08-10T08:43:31.938Z,26.10
2022-08-10T08:46:17.510Z,26.30
2022-08-10T08:49:14.632Z,26.50
2022-08-10T08:52:34.985Z,26.80
2022-08-10T08:59:02.914Z,27.30
2022-08-10T09:02:28.641Z,27.60
2022-08-10T09:05:02.992Z,27.60
2022-08-10T09:08:16.590Z,27.70
2022-08-10T09:10:52.222Z,27.80
2022-08-10T09:13:37.093Z,28.00
2022-08-10T09:16:25.358Z,28.10
2022-08-10T09:19:34.649Z,28.30
2022-08-10T09:22:21.229Z,28.40
2022-08-10T09:24:58.081Z,28.70
2022-08-10T09:27:50.081Z,28.90
2022-08-10T09:30:32.952Z,28.90
2022-08-10T09:36:19.403Z,29.00
2022-08-10T09:36:24.063Z,29.10
2022-08-10T09:39:07.366Z,29.20
2022-08-10T09:41:57.298Z,29.40
2022-08-10T09:44:57.413Z,29.40
2022-08-10T09:48:02.696Z,29.60
2022-08-10T09:51:34.491Z,29.80
2022-08-10T09:54:07.016Z,30.10
2022-08-10T09:56:50.527Z,30.30
2022-08-10T10:00:00.459Z,30.30
2022-08-10T10:02:41.001Z,30.30
2022-08-10T10:05:52.052Z,30.30
2022-08-10T10:08:40.749Z,30.40
2022-08-10T10:11:28.287Z,30.60
2022-08-10T10:14:12.618Z,30.60
2022-08-10T10:16:54.602Z,30.50
2022-08-10T10:19:43.095Z,30.50
2022-08-10T10:22:25.434Z,30.60
2022-08-10T10:25:01.530Z,31.10
2022-08-10T10:28:44.352Z,31.10
2022-08-10T10:31:55.029Z,31.20
2022-08-10T10:34:50.360Z,31.20
2022-08-10T10:37:21.788Z,31.30
2022-08-10T10:40:10.405Z,31.30
2022-08-10T10:42:48.037Z,31.40
2022-08-10T10:45:26.974Z,31.40
2022-08-10T10:47:59.156Z,31.70
2022-08-10T10:50:40.677Z,31.70
2022-08-10T10:53:21.228Z,31.80
2022-08-10T10:56:14.713Z,31.90
2022-08-10T10:58:55.305Z,31.80
2022-08-10T11:01:37.884Z,31.70
2022-08-10T11:04:24.380Z,31.90
2022-08-10T11:07:30.971Z,32.30
2022-08-10T11:10:35.201Z,32.60
2022-08-10T11:14:25.362Z,32.70
2022-08-10T11:16:52.905Z,32.70
2022-08-10T11:20:02.782Z,32.80
2022-08-10T11:22:36.781Z,33.00
2022-08-10T11:25:21.890Z,33.10
2022-08-10T11:28:08.899Z,33.20
2022-08-10T11:31:01.936Z,32.90
2022-08-10T11:34:03.750Z,33.00
2022-08-10T11:36:55.444Z,33.20
2022-08-10T11:39:30.607Z,33.40
2022-08-10T11:42:28.938Z,33.60
2022-08-10T11:45:04.801Z,33.40
2022-08-10T11:47:51.186Z,33.70
2022-08-10T11:50:36.278Z,33.90
2022-08-10T11:53:09.039Z,33.80
2022-08-10T11:55:38.890Z,33.80
2022-08-10T11:58:31.589Z,33.80
2022-08-10T12:01:07.136Z,34.10
2022-08-10T12:03:36.867Z,34.10
2022-08-10T12:06:12.574Z,34.30
2022-08-10T12:10:04.663Z,34.10
2022-08-10T12:11:32.570Z,33.80
2022-08-10T12:14:22.346Z,34.00
2022-08-10T12:17:30.240Z,34.20
2022-08-10T12:20:07.411Z,34.20
2022-08-10T12:22:50.800Z,34.40
2022-08-10T12:25:56.696Z,34.40
2022-08-10T12:28:51.262Z,34.20
2022-08-10T12:31:45.677Z,34.10
2022-08-10T12:34:28.911Z,34.10
2022-08-10T12:37:15.369Z,34.40
2022-08-10T12:39:51.170Z,34.40
2022-08-10T12:42:39.084Z,34.60
2022-08-10T12:48:16.697Z,35.00
2022-08-10T12:50:56.280Z,35.10
2022-08-10T12:53:53.500Z,34.90
2022-08-10T12:56:31.158Z,34.70
2022-08-10T12:59:25.243Z,34.80
2022-08-10T13:02:06.618Z,34.90
2022-08-10T13:04:42.375Z,34.70
2022-08-10T13:07:10.170Z,35.00
2022-08-10T13:09:54.833Z,35.00
2022-08-10T13:12:37.274Z,34.90
2022-08-10T13:15:48.888Z,34.80
2022-08-10T13:18:45.331Z,35.10
2022-08-10T13:21:20.632Z,35.40
2022-08-10T13:24:05.156Z,35.50
2022-08-10T13:26:38.082Z,35.50
2022-08-10T13:29:41.493Z,35.40
2022-08-10T13:32:13.565Z,35.40
2022-08-10T13:34:45.729Z,34.90
2022-08-10T13:37:19.366Z,34.70
2022-08-10T13:39:58.886Z,34.50
2022-08-10T13:42:32.122Z,34.70
2022-08-10T13:45:16.569Z,34.90
2022-08-10T13:47:50.169Z,35.10
2022-08-10T13:50:34.870Z,35.20
2022-08-10T13:53:14.868Z,35.70
2022-08-10T13:55:56.192Z,36.20
2022-08-10T13:58:25.445Z,36.40
2022-08-10T14:01:01.655Z,36.10
2022-08-10T14:03:36.798Z,36.20
2022-08-10T14:06:18.778Z,35.70
2022-08-10T14:08:53.951Z,35.40
2022-08-10T14:11:27.114Z,35.30
2022-08-10T14:14:07.193Z,35.20
2022-08-10T14:16:41.427Z,35.20
2022-08-10T14:19:14.565Z,35.50
2022-08-10T14:21:43.193Z,35.40
2022-08-10T14:24:25.646Z,35.40
2022-08-10T14:27:10.727Z,35.50
2022-08-10T14:29:45.542Z,35.60
2022-08-10T14:32:17.877Z,35.70
2022-08-10T14:36:17.303Z,35.70
2022-08-10T14:38:17.273Z,35.60
2022-08-10T14:40:49.485Z,35.40
2022-08-10T14:43:37.532Z,35.20
2022-08-10T14:46:19.586Z,35.20
2022-08-10T14:48:52.380Z,35.30
2022-08-10T14:51:26.973Z,35.30
2022-08-10T14:54:16.211Z,35.00
2022-08-10T14:56:49.140Z,34.80
2022-08-10T14:59:18.049Z,34.40
2022-08-10T15:02:00.312Z,34.00
2022-08-10T15:04:38.326Z,33.70
2022-08-10T15:07:21.183Z,33.60
2022-08-10T15:10:01.516Z,33.50
2022-08-10T15:12:34.917Z,33.40
2022-08-10T15:15:08.968Z,33.30
2022-08-10T15:17:41.263Z,33.50
2022-08-10T15:20:20.798Z,33.60
2022-08-10T15:23:30.774Z,33.70
2022-08-10T15:26:19.122Z,33.90
2022-08-10T15:29:08.536Z,34.00
2022-08-10T15:34:40.848Z,34.00
2022-08-10T15:37:39.301Z,33.80
2022-08-10T15:40:22.083Z,33.80
2022-08-10T15:43:25.422Z,33.70
2022-08-10T15:46:01.230Z,33.30
2022-08-10T15:48:51.299Z,32.70
2022-08-10T15:51:28.498Z,32.40
2022-08-10T15:54:12.229Z,32.20
2022-08-10T15:56:51.952Z,32.10
2022-08-10T15:59:33.839Z,31.90
2022-08-10T16:02:15.271Z,31.80
2022-08-10T16:05:05.750Z,31.80
2022-08-10T16:08:00.383Z,31.70
2022-08-10T16:10:38.702Z,31.70
2022-08-10T16:13:59.298Z,31.60
2022-08-10T16:16:03.641Z,31.30
2022-08-10T16:18:40.109Z,31.10
2022-08-10T16:24:17.213Z,31.00
2022-08-10T16:26:50.969Z,30.80
2022-08-10T16:29:24.780Z,30.80
2022-08-10T16:31:55.078Z,30.70
2022-08-10T16:34:32.108Z,30.70
2022-08-10T16:37:07.032Z,30.60
2022-08-10T16:39:59.839Z,30.60
2022-08-10T16:42:35.024Z,30.50
2022-08-10T16:45:16.813Z,30.50
2022-08-10T16:47:48.695Z,30.40
2022-08-10T16:50:41.973Z,30.40
2022-08-10T16:53:15.991Z,30.30
2022-08-10T16:55:52.975Z,30.20
2022-08-10T16:58:35.745Z,30.20
2022-08-10T17:01:14.039Z,30.20
2022-08-10T17:04:11.135Z,30.00
2022-08-10T17:15:25.720Z,29.90
2022-08-10T17:18:00.189Z,29.80
2022-08-10T17:20:32.722Z,29.70
2022-08-10T17:23:07.094Z,29.60
2022-08-10T17:25:46.346Z,29.50
2022-08-10T17:28:24.379Z,29.50
2022-08-10T17:31:24.271Z,29.40
2022-08-10T17:34:30.789Z,29.40
2022-08-10T17:37:01.206Z,29.30
2022-08-10T17:39:33.475Z,29.30
2022-08-10T17:42:05.686Z,29.20
2022-08-10T17:44:39.971Z,29.20
2022-08-10T17:47:10.846Z,29.10
2022-08-10T17:49:42.857Z,29.10
2022-08-10T17:52:13.226Z,29.00
2022-08-10T17:54:46.412Z,28.90
2022-08-10T17:57:22.415Z,28.80
2022-08-10T17:59:51.676Z,28.70
2022-08-10T18:02:45.637Z,28.70
2022-08-10T18:05:13.784Z,28.60
2022-08-10T18:07:52.128Z,28.60
2022-08-10T18:10:21.370Z,28.50
2022-08-10T18:12:54.003Z,28.40
2022-08-10T18:15:23.883Z,28.40
2022-08-10T18:18:02.798Z,28.30
2022-08-10T18:20:38.147Z,28.20
2022-08-10T18:23:07.513Z,28.10
2022-08-10T18:25:39.512Z,28.10
2022-08-10T18:28:18.674Z,28.00
2022-08-10T18:30:49.520Z,27.90
2022-08-10T18:33:27.876Z,27.80
2022-08-10T18:36:01.032Z,27.70
2022-08-10T18:38:31.842Z,27.70
2022-08-10T18:41:10.908Z,27.60
2022-08-10T18:44:10.566Z,27.60
2022-08-10T18:46:46.697Z,27.50
2022-08-10T18:49:25.192Z,27.40
2022-08-10T18:51:57.722Z,27.30
2022-08-10T18:54:39.147Z,27.20
2022-08-10T18:57:47.623Z,27.10
2022-08-10T19:00:28.713Z,27.10
2022-08-10T19:03:22.900Z,27.00
2022-08-10T19:06:25.423Z,26.90
2022-08-10T19:09:45.523Z,26.80
2022-08-10T19:12:58.413Z,26.80
2022-08-10T19:16:16.033Z,26.60
2022-08-10T19:19:22.304Z,26.50
2022-08-10T19:22:20.529Z,26.40
2022-08-10T19:24:56.486Z,26.30
2022-08-10T19:28:00.108Z,26.20
2022-08-10T19:30:50.010Z,25.80
2022-08-10T19:34:11.352Z,25.50
2022-08-10T19:37:36.268Z,25.30
2022-08-10T19:40:44.258Z,25.00
2022-08-10T19:44:00.844Z,24.70
2022-08-10T19:46:50.986Z,24.40
2022-08-10T19:49:49.503Z,24.20
2022-08-10T19:52:42.430Z,24.00
2022-08-10T19:55:36.828Z,23.80
2022-08-10T19:58:51.979Z,23.50
2022-08-10T20:01:19.646Z,23.40
2022-08-10T20:03:52.212Z,23.20
2022-08-10T20:06:53.873Z,23.10
2022-08-10T20:09:39.655Z,23.10
2022-08-10T20:12:15.319Z,22.80
2022-08-10T20:14:49.524Z,22.70
2022-08-10T20:17:51.023Z,22.50
2022-08-10T20:21:01.110Z,22.30
2022-08-10T20:23:35.946Z,22.10
2022-08-10T20:26:40.201Z,21.90
2022-08-10T20:29:16.429Z,21.80
2022-08-10T20:32:11.509Z,21.70
2022-08-10T20:34:41.074Z,21.60
2022-08-10T20:38:02.735Z,21.50
2022-08-10T20:40:38.583Z,21.40
2022-08-10T20:43:24.000Z,21.20
2022-08-10T20:46:10.400Z,21.10
2022-08-10T20:48:43.586Z,21.00
2022-08-10T20:51:18.533Z,20.90
2022-08-10T20:53:51.323Z,20.80
2022-08-10T20:57:06.393Z,20.70
2022-08-10T21:00:12.133Z,20.70
2022-08-10T21:03:21.206Z,20.60
2022-08-10T21:06:07.823Z,20.70
2022-08-10T21:08:58.491Z,20.70
2022-08-10T21:11:52.339Z,20.70
2022-08-10T21:14:56.725Z,20.70
2022-08-10T21:21:07.765Z,20.50
2022-08-10T21:23:37.909Z,20.40
2022-08-10T21:26:08.146Z,20.30
2022-08-10T21:28:49.784Z,20.20
2022-08-10T21:31:22.881Z,20.10
2022-08-10T21:34:18.328Z,20.10
2022-08-10T21:37:17.984Z,20.00
2022-08-10T21:40:35.583Z,19.90
2022-08-10T21:43:44.171Z,19.80
2022-08-10T21:46:55.076Z,19.70
2022-08-10T21:50:08.042Z,19.60
2022-08-10T21:53:04.283Z,19.50
2022-08-10T21:56:14.351Z,19.40
2022-08-10T21:59:25.711Z,19.40
2022-08-10T22:02:22.077Z,19.40
2022-08-10T22:05:18.290Z,19.40
2022-08-10T22:08:12.272Z,19.30
2022-08-10T22:11:06.011Z,19.20
2022-08-10T22:13:55.810Z,19.10
2022-08-10T22:17:03.962Z,19.10
2022-08-10T22:19:53.486Z,19.20
2022-08-10T22:22:56.151Z,19.10
2022-08-10T22:25:52.168Z,19.10
2022-08-10T22:28:39.088Z,19.10
2022-08-10T22:31:52.821Z,19.10
2022-08-10T22:34:44.263Z,19.00
2022-08-10T22:37:45.017Z,19.00
2022-08-10T22:40:41.464Z,19.00
2022-08-10T22:44:02.771Z,19.00
2022-08-10T22:46:52.255Z,18.90
2022-08-10T22:49:23.146Z,19.00
2022-08-10T22:52:07.236Z,19.00
2022-08-10T22:55:11.949Z,19.00
2022-08-10T22:58:50.380Z,18.90
2022-08-10T23:01:41.613Z,18.80
2022-08-10T23:04:35.914Z,18.80
2022-08-10T23:07:28.360Z,18.80
2022-08-10T23:10:21.476Z,18.80
2022-08-10T23:12:51.296Z,18.90
2022-08-10T23:15:57.568Z,18.90
2022-08-10T23:19:00.319Z,18.80
2022-08-10T23:22:02.862Z,18.80
2022-08-10T23:24:50.295Z,18.70
2022-08-10T23:27:37.747Z,18.60
2022-08-10T23:30:17.620Z,18.50
2022-08-10T23:32:48.491Z,18.40
2022-08-10T23:36:28.168Z,18.40
2022-08-10T23:38:09.952Z,18.30
2022-08-10T23:40:41.345Z,18.40
2022-08-10T23:43:14.337Z,18.40
2022-08-10T23:45:52.546Z,18.50
2022-08-10T23:48:30.336Z,18.40
2022-08-10T23:51:16.502Z,18.50
2022-08-10T23:53:47.161Z,18.40
2022-08-10T23:56:18.494Z,18.40
2022-08-10T23:58:46.016Z,18.40
